sensor_id;sensor_type;location;lat;lon;timestamp;pressure;altitude;pressure_sealevel;temperature;humidity
66547;BME280;53400;50.364;14.874;2023-02-02T00:02:08;98239.88;;;1.84;100.00
66547;BME280;53400;50.364;14.874;2023-02-02T00:04:35;98253.88;;;1.85;99.85
66547;BME280;53400;50.364;14.874;2023-02-02T00:07:02;98255.31;;;1.88;99.73
66547;BME280;53400;50.364;14.874;2023-02-02T00:09:30;98249.47;;;1.92;99.56
66547;BME280;53400;50.364;14.874;2023-02-02T00:11:58;98248.22;;;1.88;98.77
66547;BME280;53400;50.364;14.874;2023-02-02T00:14:24;98242.94;;;1.95;98.55
66547;BME280;53400;50.364;14.874;2023-02-02T00:16:51;98237.66;;;1.95;98.32
66547;BME280;53400;50.364;14.874;2023-02-02T00:19:20;98235.66;;;1.97;97.98
66547;BME280;53400;50.364;14.874;2023-02-02T00:21:47;98237.88;;;1.93;98.34
66547;BME280;53400;50.364;14.874;2023-02-02T00:24:14;98241.09;;;1.89;98.40
66547;BME280;53400;50.364;14.874;2023-02-02T00:26:44;98235.41;;;1.92;97.94
66547;BME280;53400;50.364;14.874;2023-02-02T00:29:14;98231.16;;;1.91;97.97
66547;BME280;53400;50.364;14.874;2023-02-02T00:31:40;98236.03;;;1.94;96.76
66547;BME280;53400;50.364;14.874;2023-02-02T00:34:06;98233.00;;;1.90;96.84
66547;BME280;53400;50.364;14.874;2023-02-02T00:36:33;98227.47;;;1.85;97.18
66547;BME280;53400;50.364;14.874;2023-02-02T00:38:59;98225.88;;;1.84;96.96
66547;BME280;53400;50.364;14.874;2023-02-02T00:41:25;98231.16;;;1.84;96.91
66547;BME280;53400;50.364;14.874;2023-02-02T00:43:51;98229.13;;;1.86;97.09
66547;BME280;53400;50.364;14.874;2023-02-02T00:46:38;98230.34;;;1.83;96.92
66547;BME280;53400;50.364;14.874;2023-02-02T00:49:04;98227.06;;;1.81;97.01
66547;BME280;53400;50.364;14.874;2023-02-02T00:51:30;98217.72;;;1.79;96.78
66547;BME280;53400;50.364;14.874;2023-02-02T00:53:57;98220.16;;;1.80;97.28
66547;BME280;53400;50.364;14.874;2023-02-02T00:56:23;98223.41;;;1.82;96.72
66547;BME280;53400;50.364;14.874;2023-02-02T00:58:50;98222.00;;;1.80;97.04
66547;BME280;53400;50.364;14.874;2023-02-02T01:01:17;98221.97;;;1.73;96.90
66547;BME280;53400;50.364;14.874;2023-02-02T01:03:43;98210.03;;;1.84;96.50
66547;BME280;53400;50.364;14.874;2023-02-02T01:06:09;98220.16;;;1.80;95.34
66547;BME280;53400;50.364;14.874;2023-02-02T01:08:34;98226.03;;;1.76;95.32
66547;BME280;53400;50.364;14.874;2023-02-02T01:11:02;98229.91;;;1.80;94.69
66547;BME280;53400;50.364;14.874;2023-02-02T01:13:28;98230.09;;;1.78;94.22
66547;BME280;53400;50.364;14.874;2023-02-02T01:15:54;98238.84;;;1.86;93.70
66547;BME280;53400;50.364;14.874;2023-02-02T01:18:20;98240.47;;;1.80;93.97
66547;BME280;53400;50.364;14.874;2023-02-02T01:20:46;98236.19;;;1.79;93.86
66547;BME280;53400;50.364;14.874;2023-02-02T01:23:11;98233.94;;;1.76;94.43
66547;BME280;53400;50.364;14.874;2023-02-02T01:25:37;98235.56;;;1.70;94.46
66547;BME280;53400;50.364;14.874;2023-02-02T01:28:05;98241.84;;;1.69;94.50
66547;BME280;53400;50.364;14.874;2023-02-02T01:30:31;98245.28;;;1.63;95.14
66547;BME280;53400;50.364;14.874;2023-02-02T01:32:56;98253.19;;;1.63;95.62
66547;BME280;53400;50.364;14.874;2023-02-02T01:35:22;98247.91;;;1.63;95.86
66547;BME280;53400;50.364;14.874;2023-02-02T01:37:48;98250.13;;;1.59;95.60
66547;BME280;53400;50.364;14.874;2023-02-02T01:40:14;98255.03;;;1.63;96.16
66547;BME280;53400;50.364;14.874;2023-02-02T01:42:40;98248.69;;;1.50;96.29
66547;BME280;53400;50.364;14.874;2023-02-02T01:45:16;98249.25;;;1.46;96.47
66547;BME280;53400;50.364;14.874;2023-02-02T01:47:45;98244.94;;;1.31;97.72
66547;BME280;53400;50.364;14.874;2023-02-02T01:50:14;98244.16;;;1.37;97.25
66547;BME280;53400;50.364;14.874;2023-02-02T01:52:42;98238.66;;;1.39;96.96
66547;BME280;53400;50.364;14.874;2023-02-02T01:55:11;98229.69;;;1.33;96.93
66547;BME280;53400;50.364;14.874;2023-02-02T01:57:40;98233.47;;;1.52;95.21
66547;BME280;53400;50.364;14.874;2023-02-02T02:00:12;98229.81;;;1.53;94.99
66547;BME280;53400;50.364;14.874;2023-02-02T02:02:39;98232.44;;;1.47;95.37
66547;BME280;53400;50.364;14.874;2023-02-02T02:05:08;98225.72;;;1.44;95.78
66547;BME280;53400;50.364;14.874;2023-02-02T02:07:35;98227.53;;;1.44;95.28
66547;BME280;53400;50.364;14.874;2023-02-02T02:10:02;98213.16;;;1.53;94.45
66547;BME280;53400;50.364;14.874;2023-02-02T02:12:28;98225.88;;;1.43;95.06
66547;BME280;53400;50.364;14.874;2023-02-02T02:14:54;98223.19;;;1.29;95.20
66547;BME280;53400;50.364;14.874;2023-02-02T02:17:58;98229.69;;;1.33;95.28
66547;BME280;53400;50.364;14.874;2023-02-02T02:20:39;98228.06;;;1.26;94.87
66547;BME280;53400;50.364;14.874;2023-02-02T02:23:49;98225.53;;;1.11;95.68
66547;BME280;53400;50.364;14.874;2023-02-02T02:27:01;98223.78;;;1.25;94.75
66547;BME280;53400;50.364;14.874;2023-02-02T02:32:27;98221.22;;;1.38;93.56
66547;BME280;53400;50.364;14.874;2023-02-02T02:35:02;98211.72;;;1.44;92.95
66547;BME280;53400;50.364;14.874;2023-02-02T02:37:33;98224.72;;;1.52;92.45
66547;BME280;53400;50.364;14.874;2023-02-02T02:40:05;98235.91;;;1.54;91.80
66547;BME280;53400;50.364;14.874;2023-02-02T02:42:36;98232.06;;;1.56;92.05
66547;BME280;53400;50.364;14.874;2023-02-02T02:45:05;98230.44;;;1.55;91.61
66547;BME280;53400;50.364;14.874;2023-02-02T02:47:34;98227.56;;;1.50;91.75
66547;BME280;53400;50.364;14.874;2023-02-02T02:50:02;98221.47;;;1.50;91.77
66547;BME280;53400;50.364;14.874;2023-02-02T02:52:28;98227.34;;;1.52;92.19
66547;BME280;53400;50.364;14.874;2023-02-02T02:54:55;98226.00;;;1.63;91.48
66547;BME280;53400;50.364;14.874;2023-02-02T02:57:40;98227.44;;;1.65;91.54
66547;BME280;53400;50.364;14.874;2023-02-02T03:00:31;98224.41;;;1.68;91.30
66547;BME280;53400;50.364;14.874;2023-02-02T03:03:04;98219.69;;;1.64;91.94
66547;BME280;53400;50.364;14.874;2023-02-02T03:05:37;98215.69;;;1.74;90.88
66547;BME280;53400;50.364;14.874;2023-02-02T03:08:10;98226.09;;;1.89;89.39
66547;BME280;53400;50.364;14.874;2023-02-02T03:10:41;98229.31;;;1.91;89.54
66547;BME280;53400;50.364;14.874;2023-02-02T03:13:10;98215.09;;;1.86;89.97
66547;BME280;53400;50.364;14.874;2023-02-02T03:15:39;98228.13;;;1.94;89.18
66547;BME280;53400;50.364;14.874;2023-02-02T03:18:07;98218.59;;;1.99;88.33
66547;BME280;53400;50.364;14.874;2023-02-02T03:20:33;98222.03;;;2.00;88.65
66547;BME280;53400;50.364;14.874;2023-02-02T03:22:59;98220.00;;;1.95;88.78
66547;BME280;53400;50.364;14.874;2023-02-02T03:25:25;98224.69;;;2.00;87.36
66547;BME280;53400;50.364;14.874;2023-02-02T03:27:52;98218.59;;;2.06;86.73
66547;BME280;53400;50.364;14.874;2023-02-02T03:30:18;98212.91;;;2.02;86.93
66547;BME280;53400;50.364;14.874;2023-02-02T03:32:45;98202.13;;;1.97;87.40
66547;BME280;53400;50.364;14.874;2023-02-02T03:35:12;98202.75;;;2.06;85.91
66547;BME280;53400;50.364;14.874;2023-02-02T03:37:38;98201.34;;;2.10;85.42
66547;BME280;53400;50.364;14.874;2023-02-02T03:40:05;98199.13;;;2.14;85.20
66547;BME280;53400;50.364;14.874;2023-02-02T03:42:32;98195.88;;;2.18;84.56
66547;BME280;53400;50.364;14.874;2023-02-02T03:44:57;98200.97;;;2.20;84.99
66547;BME280;53400;50.364;14.874;2023-02-02T03:47:27;98203.19;;;2.23;83.30
66547;BME280;53400;50.364;14.874;2023-02-02T03:49:53;98203.38;;;2.21;83.51
66547;BME280;53400;50.364;14.874;2023-02-02T03:52:20;98208.28;;;2.24;83.22
66547;BME280;53400;50.364;14.874;2023-02-02T03:54:46;98204.63;;;2.25;82.29
66547;BME280;53400;50.364;14.874;2023-02-02T03:57:12;98210.72;;;2.33;81.71
66547;BME280;53400;50.364;14.874;2023-02-02T03:59:37;98204.41;;;2.34;81.32
66547;BME280;53400;50.364;14.874;2023-02-02T04:02:03;98218.25;;;2.29;81.62
66547;BME280;53400;50.364;14.874;2023-02-02T04:04:29;98209.50;;;2.28;80.64
66547;BME280;53400;50.364;14.874;2023-02-02T04:06:55;98209.91;;;2.25;81.72
66547;BME280;53400;50.364;14.874;2023-02-02T04:09:24;98209.06;;;2.25;81.89
66547;BME280;53400;50.364;14.874;2023-02-02T04:11:50;98211.94;;;2.23;82.12
66547;BME280;53400;50.364;14.874;2023-02-02T04:14:16;98187.72;;;2.00;84.11
66547;BME280;53400;50.364;14.874;2023-02-02T04:16:42;98206.81;;;2.09;82.67
66547;BME280;53400;50.364;14.874;2023-02-02T04:19:07;98200.13;;;2.06;83.60
66547;BME280;53400;50.364;14.874;2023-02-02T04:21:34;98201.13;;;2.12;82.73
66547;BME280;53400;50.364;14.874;2023-02-02T04:24:00;98216.19;;;2.11;83.33
66547;BME280;53400;50.364;14.874;2023-02-02T04:26:27;98196.88;;;2.04;84.87
66547;BME280;53400;50.364;14.874;2023-02-02T04:28:53;98198.66;;;1.97;85.04
66547;BME280;53400;50.364;14.874;2023-02-02T04:31:19;98204.34;;;1.87;84.50
66547;BME280;53400;50.364;14.874;2023-02-02T04:33:45;98203.53;;;1.80;86.04
66547;BME280;53400;50.364;14.874;2023-02-02T04:36:11;98209.19;;;1.77;86.65
66547;BME280;53400;50.364;14.874;2023-02-02T04:38:36;98206.97;;;1.80;86.65
66547;BME280;53400;50.364;14.874;2023-02-02T04:41:05;98219.75;;;1.77;87.25
66547;BME280;53400;50.364;14.874;2023-02-02T04:43:33;98215.47;;;1.76;87.26
66547;BME280;53400;50.364;14.874;2023-02-02T04:46:00;98228.03;;;1.67;87.72
66547;BME280;53400;50.364;14.874;2023-02-02T04:48:25;98218.09;;;1.69;88.40
66547;BME280;53400;50.364;14.874;2023-02-02T04:50:57;98231.31;;;1.76;88.15
66547;BME280;53400;50.364;14.874;2023-02-02T04:53:23;98232.16;;;1.83;88.06
66547;BME280;53400;50.364;14.874;2023-02-02T04:55:49;98236.06;;;2.00;86.52
66547;BME280;53400;50.364;14.874;2023-02-02T04:58:15;98236.91;;;2.14;84.86
66547;BME280;53400;50.364;14.874;2023-02-02T05:00:42;98248.72;;;2.25;84.09
66547;BME280;53400;50.364;14.874;2023-02-02T05:03:08;98242.84;;;2.29;83.88
66547;BME280;53400;50.364;14.874;2023-02-02T05:05:34;98248.34;;;2.35;83.51
66547;BME280;53400;50.364;14.874;2023-02-02T05:08:00;98236.75;;;2.36;83.33
66547;BME280;53400;50.364;14.874;2023-02-02T05:10:26;98240.59;;;2.40;83.41
66547;BME280;53400;50.364;14.874;2023-02-02T05:12:52;98250.59;;;2.38;83.60
66547;BME280;53400;50.364;14.874;2023-02-02T05:15:18;98256.06;;;2.36;82.93
66547;BME280;53400;50.364;14.874;2023-02-02T05:17:47;98255.25;;;2.36;82.61
66547;BME280;53400;50.364;14.874;2023-02-02T05:20:13;98259.31;;;2.38;82.50
66547;BME280;53400;50.364;14.874;2023-02-02T05:22:39;98256.88;;;2.37;82.64
66547;BME280;53400;50.364;14.874;2023-02-02T05:25:07;98266.63;;;2.36;82.67
66547;BME280;53400;50.364;14.874;2023-02-02T05:27:33;98252.19;;;2.45;83.02
66547;BME280;53400;50.364;14.874;2023-02-02T05:29:59;98257.09;;;2.42;82.31
66547;BME280;53400;50.364;14.874;2023-02-02T05:32:25;98261.97;;;2.51;82.48
66547;BME280;53400;50.364;14.874;2023-02-02T05:34:54;98286.78;;;2.50;83.11
66547;BME280;53400;50.364;14.874;2023-02-02T05:37:20;98284.34;;;2.56;82.25
66547;BME280;53400;50.364;14.874;2023-02-02T05:39:46;98286.56;;;2.52;82.75
66547;BME280;53400;50.364;14.874;2023-02-02T05:42:12;98288.84;;;2.62;82.12
66547;BME280;53400;50.364;14.874;2023-02-02T05:44:38;98274.38;;;2.58;83.33
66547;BME280;53400;50.364;14.874;2023-02-02T05:47:04;98277.63;;;2.46;83.52
66547;BME280;53400;50.364;14.874;2023-02-02T05:49:30;98287.38;;;2.46;83.52
66547;BME280;53400;50.364;14.874;2023-02-02T05:51:57;98281.50;;;2.44;83.88
66547;BME280;53400;50.364;14.874;2023-02-02T05:54:23;98285.53;;;2.46;84.39
66547;BME280;53400;50.364;14.874;2023-02-02T05:56:51;98284.72;;;2.39;84.85
66547;BME280;53400;50.364;14.874;2023-02-02T05:59:17;98283.69;;;2.27;85.92
66547;BME280;53400;50.364;14.874;2023-02-02T06:01:43;98292.81;;;2.18;86.45
66547;BME280;53400;50.364;14.874;2023-02-02T06:04:09;98298.72;;;2.26;85.96
66547;BME280;53400;50.364;14.874;2023-02-02T06:06:35;98292.41;;;2.27;85.98
66547;BME280;53400;50.364;14.874;2023-02-02T06:09:05;98292.00;;;2.24;85.85
66547;BME280;53400;50.364;14.874;2023-02-02T06:11:31;98293.44;;;2.26;85.65
66547;BME280;53400;50.364;14.874;2023-02-02T06:13:58;98304.19;;;2.25;85.57
66547;BME280;53400;50.364;14.874;2023-02-02T06:16:24;98311.94;;;2.20;85.53
66547;BME280;53400;50.364;14.874;2023-02-02T06:18:50;98294.47;;;2.25;86.16
66547;BME280;53400;50.364;14.874;2023-02-02T06:21:17;98303.59;;;2.16;86.31
66547;BME280;53400;50.364;14.874;2023-02-02T06:23:44;98313.53;;;2.21;86.40
66547;BME280;53400;50.364;14.874;2023-02-02T06:26:12;98316.59;;;2.18;86.80
66547;BME280;53400;50.364;14.874;2023-02-02T06:28:38;98314.56;;;2.20;86.79
66547;BME280;53400;50.364;14.874;2023-02-02T06:31:04;98312.53;;;2.22;86.28
66547;BME280;53400;50.364;14.874;2023-02-02T06:33:31;98311.50;;;2.16;86.28
66547;BME280;53400;50.364;14.874;2023-02-02T06:35:58;98309.69;;;2.17;87.02
66547;BME280;53400;50.364;14.874;2023-02-02T06:38:24;98321.88;;;2.18;86.60
66547;BME280;53400;50.364;14.874;2023-02-02T06:40:50;98331.81;;;2.16;86.91
66547;BME280;53400;50.364;14.874;2023-02-02T06:43:17;98332.03;;;2.14;86.79
66547;BME280;53400;50.364;14.874;2023-02-02T06:45:43;98327.94;;;2.12;87.10
66547;BME280;53400;50.364;14.874;2023-02-02T06:48:10;98335.06;;;2.11;87.18
66547;BME280;53400;50.364;14.874;2023-02-02T06:50:36;98343.63;;;2.13;87.69
66547;BME280;53400;50.364;14.874;2023-02-02T06:53:03;98339.13;;;2.07;88.08
66547;BME280;53400;50.364;14.874;2023-02-02T06:55:29;98342.53;;;2.01;87.93
66547;BME280;53400;50.364;14.874;2023-02-02T06:57:55;98358.59;;;2.06;88.40
66547;BME280;53400;50.364;14.874;2023-02-02T07:00:23;98355.56;;;2.09;88.55
66547;BME280;53400;50.364;14.874;2023-02-02T07:02:50;98347.22;;;2.05;88.36
66547;BME280;53400;50.364;14.874;2023-02-02T07:05:16;98355.34;;;2.04;89.18
66547;BME280;53400;50.364;14.874;2023-02-02T07:07:44;98360.19;;;2.00;89.18
66547;BME280;53400;50.364;14.874;2023-02-02T07:10:10;98365.56;;;2.14;88.83
66547;BME280;53400;50.364;14.874;2023-02-02T07:12:37;98370.66;;;2.22;88.11
66547;BME280;53400;50.364;14.874;2023-02-02T07:15:03;98361.66;;;2.10;88.77
66547;BME280;53400;50.364;14.874;2023-02-02T07:17:31;98369.78;;;2.08;88.76
66547;BME280;53400;50.364;14.874;2023-02-02T07:19:57;98380.63;;;2.20;88.45
66547;BME280;53400;50.364;14.874;2023-02-02T07:22:23;98370.88;;;2.20;87.93
66547;BME280;53400;50.364;14.874;2023-02-02T07:24:48;98384.31;;;2.25;87.71
66547;BME280;53400;50.364;14.874;2023-02-02T07:27:15;98385.56;;;2.36;87.59
66547;BME280;53400;50.364;14.874;2023-02-02T07:29:41;98396.53;;;2.33;87.56
66547;BME280;53400;50.364;14.874;2023-02-02T07:32:07;98394.50;;;2.35;87.67
66547;BME280;53400;50.364;14.874;2023-02-02T07:34:37;98400.44;;;2.44;87.57
66547;BME280;53400;50.364;14.874;2023-02-02T07:37:04;98395.16;;;2.44;87.37
66547;BME280;53400;50.364;14.874;2023-02-02T07:39:30;98398.19;;;2.47;87.49
66547;BME280;53400;50.364;14.874;2023-02-02T07:41:56;98413.91;;;2.62;87.36
66547;BME280;53400;50.364;14.874;2023-02-02T07:44:23;98414.72;;;2.56;86.63
66547;BME280;53400;50.364;14.874;2023-02-02T07:46:51;98415.28;;;2.51;87.12
66547;BME280;53400;50.364;14.874;2023-02-02T07:49:18;98423.63;;;2.55;87.68
66547;BME280;53400;50.364;14.874;2023-02-02T07:51:46;98418.97;;;2.57;87.04
66547;BME280;53400;50.364;14.874;2023-02-02T07:54:14;98425.88;;;2.58;86.89
66547;BME280;53400;50.364;14.874;2023-02-02T07:56:40;98423.44;;;2.57;87.64
66547;BME280;53400;50.364;14.874;2023-02-02T07:59:09;98430.78;;;2.61;87.22
66547;BME280;53400;50.364;14.874;2023-02-02T08:01:36;98439.53;;;2.62;87.28
66547;BME280;53400;50.364;14.874;2023-02-02T08:04:02;98424.28;;;2.64;86.92
66547;BME280;53400;50.364;14.874;2023-02-02T08:06:30;98440.75;;;2.59;87.25
66547;BME280;53400;50.364;14.874;2023-02-02T08:08:59;98440.31;;;2.56;87.90
66547;BME280;53400;50.364;14.874;2023-02-02T08:11:26;98429.72;;;2.56;87.99
66547;BME280;53400;50.364;14.874;2023-02-02T08:13:55;98445.03;;;2.67;87.04
66547;BME280;53400;50.364;14.874;2023-02-02T08:16:22;98443.44;;;2.72;87.68
66547;BME280;53400;50.364;14.874;2023-02-02T08:18:48;98442.25;;;2.82;87.19
66547;BME280;53400;50.364;14.874;2023-02-02T08:21:16;98452.00;;;2.81;86.77
66547;BME280;53400;50.364;14.874;2023-02-02T08:23:43;98450.78;;;2.84;86.75
66547;BME280;53400;50.364;14.874;2023-02-02T08:26:12;98460.78;;;2.95;86.68
66547;BME280;53400;50.364;14.874;2023-02-02T08:28:39;98461.19;;;2.92;86.17
66547;BME280;53400;50.364;14.874;2023-02-02T08:31:08;98460.38;;;2.91;86.03
66547;BME280;53400;50.364;14.874;2023-02-02T08:33:34;98456.91;;;2.97;86.27
66547;BME280;53400;50.364;14.874;2023-02-02T08:36:01;98467.31;;;2.92;86.03
66547;BME280;53400;50.364;14.874;2023-02-02T08:38:28;98476.88;;;2.93;86.21
66547;BME280;53400;50.364;14.874;2023-02-02T08:40:55;98462.03;;;3.12;86.06
66547;BME280;53400;50.364;14.874;2023-02-02T08:43:23;98464.91;;;3.24;84.42
66547;BME280;53400;50.364;14.874;2023-02-02T08:45:50;98479.00;;;3.38;83.56
66547;BME280;53400;50.364;14.874;2023-02-02T08:48:16;98465.53;;;3.46;83.97
66547;BME280;53400;50.364;14.874;2023-02-02T08:50:51;98481.03;;;3.36;83.45
66547;BME280;53400;50.364;14.874;2023-02-02T08:53:17;98475.91;;;3.34;83.86
66547;BME280;53400;50.364;14.874;2023-02-02T08:55:43;98477.97;;;3.39;84.57
66547;BME280;53400;50.364;14.874;2023-02-02T08:58:09;98490.19;;;3.40;84.10
66547;BME280;53400;50.364;14.874;2023-02-02T09:00:37;98489.56;;;3.31;84.59
66547;BME280;53400;50.364;14.874;2023-02-02T09:03:03;98495.47;;;3.40;84.97
66547;BME280;53400;50.364;14.874;2023-02-02T09:05:30;98492.66;;;3.41;84.79
66547;BME280;53400;50.364;14.874;2023-02-02T09:07:57;98490.81;;;3.49;84.51
66547;BME280;53400;50.364;14.874;2023-02-02T09:10:23;98492.66;;;3.48;84.13
66547;BME280;53400;50.364;14.874;2023-02-02T09:12:49;98505.06;;;3.48;85.21
66547;BME280;53400;50.364;14.874;2023-02-02T09:15:16;98509.34;;;3.55;84.36
66547;BME280;53400;50.364;14.874;2023-02-02T09:17:43;98508.53;;;3.55;85.29
66547;BME280;53400;50.364;14.874;2023-02-02T09:20:11;98515.84;;;3.46;84.88
66547;BME280;53400;50.364;14.874;2023-02-02T09:22:37;98510.97;;;3.50;85.95
66547;BME280;53400;50.364;14.874;2023-02-02T09:25:04;98525.63;;;3.52;85.67
66547;BME280;53400;50.364;14.874;2023-02-02T09:27:30;98518.53;;;3.59;84.73
66547;BME280;53400;50.364;14.874;2023-02-02T09:29:56;98528.50;;;3.57;85.05
66547;BME280;53400;50.364;14.874;2023-02-02T09:32:22;98525.22;;;3.62;85.04
66547;BME280;53400;50.364;14.874;2023-02-02T09:34:50;98530.56;;;3.68;85.17
66547;BME280;53400;50.364;14.874;2023-02-02T09:37:16;98528.09;;;3.74;84.11
66547;BME280;53400;50.364;14.874;2023-02-02T09:39:42;98538.50;;;3.88;85.91
66547;BME280;53400;50.364;14.874;2023-02-02T09:42:23;98540.75;;;3.91;84.06
66547;BME280;53400;50.364;14.874;2023-02-02T09:45:01;98542.38;;;3.73;84.17
66547;BME280;53400;50.364;14.874;2023-02-02T09:47:46;98536.88;;;3.81;84.61
66547;BME280;53400;50.364;14.874;2023-02-02T09:50:32;98547.66;;;3.79;84.71
66547;BME280;53400;50.364;14.874;2023-02-02T09:53:02;98545.81;;;3.80;83.49
66547;BME280;53400;50.364;14.874;2023-02-02T09:55:35;98543.19;;;3.80;85.17
66547;BME280;53400;50.364;14.874;2023-02-02T09:58:07;98542.56;;;3.71;84.38
66547;BME280;53400;50.364;14.874;2023-02-02T10:00:40;98557.22;;;3.80;83.86
66547;BME280;53400;50.364;14.874;2023-02-02T10:03:14;98549.72;;;3.84;84.10
66547;BME280;53400;50.364;14.874;2023-02-02T10:05:49;98547.66;;;4.12;84.70
66547;BME280;53400;50.364;14.874;2023-02-02T10:08:21;98556.63;;;3.91;84.53
66547;BME280;53400;50.364;14.874;2023-02-02T10:10:50;98555.22;;;4.02;83.82
66547;BME280;53400;50.364;14.874;2023-02-02T10:13:22;98554.78;;;4.25;83.82
66547;BME280;53400;50.364;14.874;2023-02-02T10:15:57;98559.50;;;4.30;82.71
66547;BME280;53400;50.364;14.874;2023-02-02T10:18:34;98567.63;;;4.35;83.06
66547;BME280;53400;50.364;14.874;2023-02-02T10:21:10;98574.34;;;4.37;83.83
66547;BME280;53400;50.364;14.874;2023-02-02T10:23:38;98574.16;;;4.32;83.63
66547;BME280;53400;50.364;14.874;2023-02-02T10:26:13;98570.09;;;4.30;83.00
66547;BME280;53400;50.364;14.874;2023-02-02T10:28:43;98570.69;;;4.32;83.22
66547;BME280;53400;50.364;14.874;2023-02-02T10:31:17;98573.34;;;4.19;83.11
66547;BME280;53400;50.364;14.874;2023-02-02T10:33:59;98580.28;;;4.20;84.95
66547;BME280;53400;50.364;14.874;2023-02-02T10:36:34;98571.50;;;4.19;85.11
66547;BME280;53400;50.364;14.874;2023-02-02T10:39:09;98567.63;;;4.28;85.00
66547;BME280;53400;50.364;14.874;2023-02-02T10:41:42;98570.72;;;4.12;85.10
66547;BME280;53400;50.364;14.874;2023-02-02T10:44:23;98578.88;;;4.17;85.52
66547;BME280;53400;50.364;14.874;2023-02-02T10:46:57;98574.78;;;4.14;84.89
66547;BME280;53400;50.364;14.874;2023-02-02T10:49:28;98577.03;;;4.24;85.66
66547;BME280;53400;50.364;14.874;2023-02-02T10:52:04;98576.97;;;4.57;83.92
66547;BME280;53400;50.364;14.874;2023-02-02T10:54:50;98587.78;;;4.69;83.01
66547;BME280;53400;50.364;14.874;2023-02-02T10:57:25;98588.59;;;4.56;83.36
66547;BME280;53400;50.364;14.874;2023-02-02T11:00:01;98596.78;;;4.48;83.60
66547;BME280;53400;50.364;14.874;2023-02-02T11:02:31;98594.13;;;4.28;83.87
66547;BME280;53400;50.364;14.874;2023-02-02T11:04:57;98591.31;;;4.23;84.60
66547;BME280;53400;50.364;14.874;2023-02-02T11:07:44;98593.75;;;4.11;85.03
66547;BME280;53400;50.364;14.874;2023-02-02T11:10:10;98587.84;;;4.09;84.77
66547;BME280;53400;50.364;14.874;2023-02-02T11:12:41;98593.13;;;4.23;86.05
66547;BME280;53400;50.364;14.874;2023-02-02T11:15:23;98588.03;;;3.88;87.65
66547;BME280;53400;50.364;14.874;2023-02-02T11:17:51;98598.41;;;3.76;89.17
66547;BME280;53400;50.364;14.874;2023-02-02T11:20:23;98601.28;;;3.75;89.45
66547;BME280;53400;50.364;14.874;2023-02-02T11:23:02;98601.88;;;3.83;89.95
66547;BME280;53400;50.364;14.874;2023-02-02T11:25:30;98599.66;;;3.87;88.54
66547;BME280;53400;50.364;14.874;2023-02-02T11:28:00;98598.22;;;3.91;88.25
66547;BME280;53400;50.364;14.874;2023-02-02T11:30:36;98598.44;;;4.03;87.44
66547;BME280;53400;50.364;14.874;2023-02-02T11:33:20;98607.59;;;4.07;87.38
66547;BME280;53400;50.364;14.874;2023-02-02T11:35:54;98601.88;;;4.17;85.71
66547;BME280;53400;50.364;14.874;2023-02-02T11:38:24;98608.41;;;4.07;86.24
66547;BME280;53400;50.364;14.874;2023-02-02T11:40:56;98607.81;;;4.12;86.53
66547;BME280;53400;50.364;14.874;2023-02-02T11:43:28;98597.84;;;4.21;84.52
66547;BME280;53400;50.364;14.874;2023-02-02T11:45:57;98601.50;;;4.33;85.42
66547;BME280;53400;50.364;14.874;2023-02-02T11:48:28;98611.06;;;4.60;85.18
66547;BME280;53400;50.364;14.874;2023-02-02T11:50:56;98606.38;;;4.49;85.04
66547;BME280;53400;50.364;14.874;2023-02-02T11:53:27;98608.41;;;4.41;83.95
66547;BME280;53400;50.364;14.874;2023-02-02T11:55:55;98601.06;;;4.23;83.77
66547;BME280;53400;50.364;14.874;2023-02-02T11:58:25;98611.47;;;4.31;82.51
66547;BME280;53400;50.364;14.874;2023-02-02T12:00:56;98606.38;;;4.36;81.02
66547;BME280;53400;50.364;14.874;2023-02-02T12:03:29;98608.22;;;4.35;80.36
66547;BME280;53400;50.364;14.874;2023-02-02T12:05:56;98611.28;;;4.32;81.72
66547;BME280;53400;50.364;14.874;2023-02-02T12:08:24;98612.91;;;4.33;81.90
66547;BME280;53400;50.364;14.874;2023-02-02T12:11:02;98618.19;;;4.60;82.17
66547;BME280;53400;50.364;14.874;2023-02-02T12:13:48;98616.97;;;4.63;84.28
66547;BME280;53400;50.364;14.874;2023-02-02T12:16:31;98622.06;;;4.57;84.17
66547;BME280;53400;50.364;14.874;2023-02-02T12:19:13;98623.06;;;4.76;82.84
66547;BME280;53400;50.364;14.874;2023-02-02T12:21:48;98630.81;;;4.65;83.46
66547;BME280;53400;50.364;14.874;2023-02-02T12:24:28;98628.22;;;4.45;85.56
66547;BME280;53400;50.364;14.874;2023-02-02T12:27:10;98624.31;;;4.41;85.94
66547;BME280;53400;50.364;14.874;2023-02-02T12:29:51;98620.22;;;4.58;87.06
66547;BME280;53400;50.364;14.874;2023-02-02T12:32:29;98617.56;;;4.78;85.22
66547;BME280;53400;50.364;14.874;2023-02-02T12:35:14;98618.16;;;4.73;84.98
66547;BME280;53400;50.364;14.874;2023-02-02T12:37:53;98609.19;;;4.68;85.02
66547;BME280;53400;50.364;14.874;2023-02-02T12:40:45;98603.06;;;4.67;83.41
66547;BME280;53400;50.364;14.874;2023-02-02T12:43:26;98617.31;;;4.86;84.61
66547;BME280;53400;50.364;14.874;2023-02-02T12:46:08;98603.69;;;4.76;82.45
66547;BME280;53400;50.364;14.874;2023-02-02T12:48:50;98612.28;;;4.58;83.37
66547;BME280;53400;50.364;14.874;2023-02-02T12:51:38;98613.50;;;4.55;84.08
66547;BME280;53400;50.364;14.874;2023-02-02T12:54:33;98608.59;;;4.52;85.05
66547;BME280;53400;50.364;14.874;2023-02-02T12:57:13;98619.63;;;4.49;85.00
66547;BME280;53400;50.364;14.874;2023-02-02T13:00:09;98621.06;;;4.45;84.05
66547;BME280;53400;50.364;14.874;2023-02-02T13:02:56;98605.75;;;4.41;84.26
66547;BME280;53400;50.364;14.874;2023-02-02T13:05:35;98612.91;;;4.40;83.68
66547;BME280;53400;50.364;14.874;2023-02-02T13:08:05;98615.75;;;4.25;84.55
66547;BME280;53400;50.364;14.874;2023-02-02T13:10:36;98620.25;;;4.38;83.87
66547;BME280;53400;50.364;14.874;2023-02-02T13:13:08;98618.00;;;4.28;84.28
66547;BME280;53400;50.364;14.874;2023-02-02T13:15:37;98618.00;;;4.22;84.99
66547;BME280;53400;50.364;14.874;2023-02-02T13:18:09;98621.91;;;4.32;85.07